Time;durP1;ratioP1;P1;durP2;ratioP2;P2;SDS_P1;SDS_P2;PMS_P1;PMS_P2;Temp;Humidity;BMP_temperature;BMP_pressure;BME280_temperature;BME280_humidity;BME280_pressure;Samples;Min_cycle;Max_cycle;Signal;HPM_P1;HPM_P2
2022/11/16 00:01:12;;;;;;;4.27;2.07;;;;;;;-145.69;100.00;52537.47;5114278;28;20202;-78
2022/11/16 00:03:39;;;;;;;6.40;2.13;;;;;;;-145.69;100.00;52539.44;5114002;28;20675;-78
2022/11/16 00:06:07;;;;;;;4.23;2.70;;;;;;;-145.69;100.00;52559.25;5114699;28;20208;-78
2022/11/16 00:08:36;;;;;;;3.23;2.13;;;;;;;-145.69;100.00;52585.00;5114284;28;20656;-78
2022/11/16 00:11:04;;;;;;;4.03;2.13;;;;;;;-145.69;100.00;52571.13;5111392;28;20208;-78
2022/11/16 00:13:34;;;;;;;4.33;2.40;;;;;;;-145.69;100.00;52575.09;5114298;28;20208;-78
2022/11/16 00:16:02;;;;;;;4.57;2.43;;;;;;;-145.69;100.00;52575.09;5114050;28;20194;-78
2022/11/16 00:18:29;;;;;;;7.57;2.30;;;;;;;-145.69;100.00;52527.56;5114298;28;20216;-78
2022/11/16 00:20:56;;;;;;;11.63;2.80;;;;;;;-145.69;100.00;52559.25;5114286;28;20207;-78
2022/11/16 00:23:23;;;;;;;5.40;2.70;;;;;;;-145.69;100.00;52539.44;5114323;28;20204;-78
2022/11/16 00:25:50;;;;;;;7.47;2.53;;;;;;;-145.69;100.00;52567.16;5113810;28;20225;-78
2022/11/16 00:28:25;;;;;;;6.43;2.57;;;;;;;-145.69;100.00;52567.16;5114125;28;20204;-79
2022/11/16 00:30:58;;;;;;;5.07;2.50;;;;;;;-145.69;100.00;52590.94;5113716;28;20207;-78
2022/11/16 00:33:26;;;;;;;7.47;2.20;;;;;;;-145.69;100.00;52555.28;5114207;28;20240;-78
2022/11/16 00:35:53;;;;;;;6.15;3.13;;;;;;;-145.69;100.00;52555.28;5112652;28;20439;-78
2022/11/16 00:38:19;;;;;;;8.90;3.17;;;;;;;-145.69;100.00;52579.06;5113820;28;20250;-78
2022/11/16 00:40:46;;;;;;;4.43;2.63;;;;;;;-145.69;100.00;52557.28;5113526;28;20197;-77
2022/11/16 00:43:12;;;;;;;6.30;2.87;;;;;;;-145.69;100.00;52594.91;5113829;28;20201;-78
2022/11/16 00:45:40;;;;;;;4.00;2.67;;;;;;;-145.69;100.00;52571.13;5113572;28;20568;-78
2022/11/16 00:48:06;;;;;;;4.43;2.47;;;;;;;-145.69;100.00;52547.38;5113308;28;20201;-77
2022/11/16 00:50:34;;;;;;;6.40;2.80;;;;;;;-145.69;100.00;52571.13;5113779;28;20685;-77
2022/11/16 00:53:01;;;;;;;4.83;2.50;;;;;;;-145.69;100.00;52543.41;5113638;28;20682;-77
2022/11/16 00:55:27;;;;;;;4.83;2.77;;;;;;;-145.69;100.00;52535.47;5113330;28;20198;-77
2022/11/16 00:57:54;;;;;;;9.13;3.15;;;;;;;-145.69;100.00;52555.28;5112379;28;20905;-78
2022/11/16 01:00:20;;;;;;;5.17;2.93;;;;;;;-145.69;100.00;52577.06;5113796;28;20205;-78
2022/11/16 01:02:51;;;;;;;4.87;2.73;;;;;;;-145.69;100.00;52557.28;5113619;28;20278;-79
2022/11/16 01:05:18;;;;;;;6.93;3.00;;;;;;;-145.69;100.00;52551.31;5113516;28;20320;-79
2022/11/16 01:07:46;;;;;;;8.93;2.60;;;;;;;-145.69;100.00;52583.00;5113419;28;20193;-78
2022/11/16 01:10:16;;;;;;;3.93;2.70;;;;;;;-145.69;100.00;52594.91;5112827;28;20193;-79
2022/11/16 01:12:42;;;;;;;5.13;2.60;;;;;;;-145.69;100.00;52588.97;5113349;28;20254;-78
2022/11/16 01:15:10;;;;;;;7.57;2.80;;;;;;;-145.69;100.00;52567.16;5113375;28;20205;-79
2022/11/16 01:17:37;;;;;;;4.70;2.53;;;;;;;-145.69;100.00;52559.25;5103148;28;20194;-79
2022/11/16 01:20:05;;;;;;;5.27;2.30;;;;;;;-145.69;100.00;52579.06;5103258;28;20204;-78
2022/11/16 01:22:32;;;;;;;3.93;2.07;;;;;;;-145.69;100.00;52583.00;5113172;28;20659;-79
2022/11/16 01:25:00;;;;;;;7.33;2.30;;;;;;;-145.69;100.00;52577.06;5113297;28;20233;-79
2022/11/16 01:27:26;;;;;;;4.27;2.73;;;;;;;-145.69;100.00;52571.13;5103489;28;20197;-79
2022/11/16 01:29:53;;;;;;;5.17;2.57;;;;;;;-145.69;100.00;52592.91;5093564;28;20208;-79
2022/11/16 01:32:20;;;;;;;5.53;2.60;;;;;;;-145.69;100.00;52531.53;5092284;28;20202;-78
2022/11/16 01:34:47;;;;;;;3.20;2.10;;;;;;;-145.69;100.00;52565.19;5092589;28;20202;-78
2022/11/16 01:37:13;;;;;;;5.27;2.00;;;;;;;-145.69;100.00;52539.44;5103678;28;20707;-79
2022/11/16 01:39:40;;;;;;;4.40;2.10;;;;;;;-145.69;100.00;52561.22;5113342;28;20201;-78
2022/11/16 01:42:10;;;;;;;6.83;2.90;;;;;;;-145.69;100.00;52608.75;5112549;28;20197;-79
2022/11/16 01:45:05;;;;;;;2.50;1.70;;;;;;;-145.69;100.00;52588.97;5113087;28;20721;-78
2022/11/16 01:47:31;;;;;;;4.67;2.07;;;;;;;-145.69;100.00;52545.38;5113117;28;20205;-78
2022/11/16 01:50:04;;;;;;;2.17;1.83;;;;;;;-145.69;100.00;52573.13;5112695;28;20193;-78
2022/11/16 01:52:33;;;;;;;3.07;1.70;;;;;;;-145.69;100.00;52577.06;5113188;28;20198;-78
2022/11/16 01:55:01;;;;;;;3.13;1.77;;;;;;;-145.69;100.00;52553.31;5112991;28;20204;-78
2022/11/16 01:57:33;;;;;;;3.23;1.70;;;;;;;-145.69;100.00;52547.38;5112969;28;20198;-77
2022/11/16 02:00:02;;;;;;;3.67;1.60;;;;;;;-145.69;100.00;52585.00;5112714;28;20196;-78
2022/11/16 02:02:28;;;;;;;3.37;1.63;;;;;;;-145.69;100.00;52585.00;5113133;28;20244;-78
2022/11/16 02:04:56;;;;;;;3.83;1.50;;;;;;;-145.69;100.00;52563.22;5112712;28;20252;-78
2022/11/16 02:09:52;;;;;;;2.23;1.43;;;;;;;-145.69;100.00;52581.03;5112589;28;20205;-78
2022/11/16 02:10:38;;;;;;;3.20;1.70;;;;;;;-145.69;100.00;52573.13;5116509;28;20232;-78
2022/11/16 02:13:17;;;;;;;3.67;1.40;;;;;;;-145.69;100.00;52559.25;5116770;28;20204;-78
2022/11/16 02:15:50;;;;;;;1.53;1.20;;;;;;;-145.69;100.00;52567.16;5116327;28;20686;-78
2022/11/16 02:18:27;;;;;;;1.23;1.13;;;;;;;-145.69;100.00;52571.13;5116518;28;20193;-79
2022/11/16 02:21:17;;;;;;;3.63;1.40;;;;;;;-145.69;100.00;52549.34;5116510;28;20193;-79
2022/11/16 02:24:04;;;;;;;1.17;1.00;;;;;;;-145.69;100.00;52559.25;5116831;28;20202;-79
2022/11/16 02:27:09;;;;;;;2.00;1.20;;;;;;;-145.69;100.00;52588.97;5116345;28;20198;-79
2022/11/16 02:29:39;;;;;;;1.27;1.10;;;;;;;-145.69;100.00;52557.28;5113314;28;20201;-78
2022/11/16 02:32:12;;;;;;;2.63;1.20;;;;;;;-145.69;100.00;52539.44;5116258;28;20197;-78
2022/11/16 02:34:42;;;;;;;2.47;1.50;;;;;;;-145.69;100.00;52598.84;5115155;28;20969;-78
2022/11/16 02:37:12;;;;;;;3.33;1.40;;;;;;;-145.69;100.00;52590.94;5116036;28;20730;-79
2022/11/16 02:39:41;;;;;;;1.20;1.10;;;;;;;-145.69;100.00;52579.06;5116492;28;20202;-79
2022/11/16 02:42:12;;;;;;;2.20;1.30;;;;;;;-145.69;100.00;52592.91;5116410;28;20583;-79
2022/11/16 02:44:44;;;;;;;2.50;1.33;;;;;;;-145.69;100.00;52559.25;5115709;28;20702;-79
2022/11/16 02:47:16;;;;;;;1.63;1.20;;;;;;;-145.69;100.00;52579.06;5116158;28;20201;-79
2022/11/16 02:49:49;;;;;;;1.57;1.00;;;;;;;-145.69;100.00;52559.25;5115956;28;20193;-79
2022/11/16 02:52:18;;;;;;;1.33;1.00;;;;;;;-145.69;100.00;52583.00;5115957;28;20194;-78
2022/11/16 02:54:44;;;;;;;1.10;1.00;;;;;;;-145.69;100.00;52585.00;5115957;28;20219;-79
2022/11/16 02:57:36;;;;;;;1.00;0.70;;;;;;;-145.69;100.00;52553.31;5116077;28;20201;-79
2022/11/16 03:00:06;;;;;;;2.10;0.80;;;;;;;-145.69;100.00;52579.06;5115953;28;20208;-79
2022/11/16 03:02:39;;;;;;;2.10;0.70;;;;;;;-145.69;100.00;52583.00;5115711;28;20659;-79
2022/11/16 03:05:12;;;;;;;2.33;0.90;;;;;;;-145.69;100.00;52545.38;5115564;28;20236;-80
2022/11/16 03:07:43;;;;;;;0.60;0.60;;;;;;;-145.69;100.00;52555.28;5115719;28;20194;-78
2022/11/16 03:11:57;;;;;;;2.00;0.63;;;;;;;-145.69;100.00;52563.22;5115912;28;20548;-78
2022/11/16 03:12:58;;;;;;;0.60;0.60;;;;;;;-145.69;100.00;52551.31;5114922;28;20582;-79
2022/11/16 03:15:30;;;;;;;1.00;0.70;;;;;;;-145.69;100.00;52571.13;5115433;28;20270;-79
2022/11/16 03:18:00;;;;;;;1.70;0.77;;;;;;;-145.69;100.00;52563.22;5115799;28;20201;-78
2022/11/16 03:20:31;;;;;;;0.87;0.70;;;;;;;-145.69;100.00;52539.44;5114898;28;20193;-79
2022/11/16 03:23:00;;;;;;;1.00;0.70;;;;;;;-145.69;100.00;52569.16;5115528;28;20305;-78
2022/11/16 03:25:31;;;;;;;0.93;0.70;;;;;;;-145.69;100.00;52527.56;5115220;28;20236;-79
2022/11/16 03:28:07;;;;;;;0.80;0.80;;;;;;;-145.69;100.00;52583.00;5111502;28;20703;-78
2022/11/16 03:30:41;;;;;;;0.70;0.63;;;;;;;-145.69;100.00;52559.25;5094644;28;20194;-78
2022/11/16 03:33:12;;;;;;;0.80;0.80;;;;;;;-145.69;100.00;52539.44;5094955;28;20202;-79
2022/11/16 03:35:49;;;;;;;0.60;0.60;;;;;;;-145.69;100.00;52571.13;5094751;28;20305;-79
2022/11/16 03:38:18;;;;;;;0.90;0.60;;;;;;;-145.69;100.00;52511.72;5094430;28;20208;-79
2022/11/16 03:40:47;;;;;;;0.90;0.60;;;;;;;-145.69;100.00;52559.25;5094623;28;20198;-79
2022/11/16 03:43:15;;;;;;;0.90;0.53;;;;;;;-145.69;100.00;52539.44;5094605;28;20198;-79
2022/11/16 03:45:45;;;;;;;0.60;0.60;;;;;;;-145.69;100.00;52535.47;5096978;28;20229;-79
2022/11/16 03:48:12;;;;;;;0.77;0.70;;;;;;;-145.69;100.00;52567.16;5114608;28;20194;-79
2022/11/16 03:50:39;;;;;;;1.23;0.70;;;;;;;-145.69;100.00;52563.22;5115070;28;20193;-79
2022/11/16 03:53:06;;;;;;;0.87;0.70;;;;;;;-145.69;100.00;52553.31;5114774;28;20197;-79
2022/11/16 03:55:33;;;;;;;0.93;0.83;;;;;;;-145.69;100.00;52563.22;5114342;28;20197;-78
2022/11/16 03:57:59;;;;;;;0.60;0.60;;;;;;;-145.69;100.00;52555.28;5114485;28;20232;-78
2022/11/16 04:00:26;;;;;;;0.80;0.80;;;;;;;-145.69;100.00;52533.50;5114709;28;20206;-78
2022/11/16 04:02:54;;;;;;;0.60;0.60;;;;;;;-145.69;100.00;52579.06;5114542;28;20198;-79
2022/11/16 04:24:56;;;;;;;0.97;0.77;;;;;;;-145.69;100.00;52551.31;5114093;28;20549;-79
2022/11/16 04:30:16;;;;;;;0.70;0.70;;;;;;;-145.69;100.00;52549.34;5114242;28;20204;-78
2022/11/16 04:38:14;;;;;;;1.17;0.90;;;;;;;-145.69;100.00;52547.38;5113674;28;20199;-79
2022/11/16 04:40:41;;;;;;;1.23;1.13;;;;;;;-145.69;100.00;52547.38;5113774;28;20571;-79
2022/11/16 04:43:09;;;;;;;0.97;0.80;;;;;;;-145.69;100.00;52547.38;5114003;27;20205;-78
2022/11/16 04:48:20;;;;;;;2.03;1.10;;;;;;;-145.69;100.00;52565.19;5113982;28;20563;-78
2022/11/16 04:50:48;;;;;;;0.98;0.88;;;;;;;-145.69;100.00;52571.13;5112896;28;20492;-79
2022/11/16 04:53:15;;;;;;;3.00;1.73;;;;;;;-145.69;100.00;52581.03;5113636;28;20646;-79
2022/11/16 04:55:42;;;;;;;4.10;2.27;;;;;;;-145.69;100.00;52594.91;5113865;28;20631;-79
2022/11/16 04:58:08;;;;;;;3.23;1.60;;;;;;;-145.69;100.00;52561.22;5113668;28;20205;-79
2022/11/16 05:00:35;;;;;;;1.83;1.60;;;;;;;-145.69;100.00;52559.25;5113576;28;20533;-79
2022/11/16 05:03:04;;;;;;;1.57;1.17;;;;;;;-145.69;100.00;52533.50;5113222;28;20537;-78
2022/11/16 05:05:30;;;;;;;2.10;1.30;;;;;;;-145.69;100.00;52598.84;5113203;28;20997;-78
2022/11/16 05:07:58;;;;;;;1.20;1.10;;;;;;;-145.69;100.00;52586.97;5113653;28;20229;-79
2022/11/16 05:10:25;;;;;;;5.37;1.30;;;;;;;-145.69;100.00;52571.13;5113681;28;20204;-79
2022/11/16 05:12:51;;;;;;;1.30;1.00;;;;;;;-145.69;100.00;52561.22;5113153;28;20209;-78
2022/11/16 05:15:18;;;;;;;1.53;1.00;;;;;;;-145.69;100.00;52549.34;5113322;28;20568;-79
2022/11/16 05:17:45;;;;;;;1.67;1.10;;;;;;;-145.69;100.00;52596.88;5113362;28;20537;-77
2022/11/16 05:22:58;;;;;;;1.40;1.07;;;;;;;-145.69;100.00;52586.97;5113299;28;20658;-78
2022/11/16 05:25:26;;;;;;;2.10;1.23;;;;;;;-145.69;100.00;52545.38;5112761;28;20679;-78
2022/11/16 05:27:53;;;;;;;3.37;1.33;;;;;;;-145.69;100.00;52590.94;5104520;28;20652;-78
2022/11/16 05:30:20;;;;;;;1.33;1.07;;;;;;;-145.69;100.00;52563.22;5092855;28;20208;-78
2022/11/16 05:32:47;;;;;;;1.37;1.27;;;;;;;-145.69;100.00;52567.16;5092948;28;20237;-78
2022/11/16 05:35:13;;;;;;;1.20;1.10;;;;;;;-145.69;100.00;52586.97;5092695;28;20208;-77
2022/11/16 05:37:40;;;;;;;1.00;0.87;;;;;;;-145.69;100.00;52579.06;5092567;28;20205;-78
2022/11/16 05:40:09;;;;;;;1.50;1.20;;;;;;;-145.69;100.00;52569.16;5092932;28;20201;-78
2022/11/16 05:42:36;;;;;;;1.40;1.27;;;;;;;-145.69;100.00;52586.97;5092448;28;20557;-78
2022/11/16 05:45:02;;;;;;;1.43;1.00;;;;;;;-145.69;100.00;52559.25;5096185;28;20198;-78
2022/11/16 05:47:29;;;;;;;1.27;1.13;;;;;;;-145.69;100.00;52575.09;5097064;28;20205;-78
2022/11/16 05:49:55;;;;;;;2.10;1.20;;;;;;;-145.69;100.00;52594.91;5095908;28;20945;-78
2022/11/16 05:52:22;;;;;;;1.50;1.27;;;;;;;-145.69;100.00;52586.97;5096471;28;20202;-77
2022/11/16 05:54:49;;;;;;;1.67;1.40;;;;;;;-145.69;100.00;52551.31;5096178;28;20546;-79
2022/11/16 05:57:17;;;;;;;1.80;1.20;;;;;;;-145.69;100.00;52590.94;5102540;28;20555;-79
2022/11/16 05:59:43;;;;;;;3.87;1.47;;;;;;;-145.69;100.00;52573.13;5116983;28;20194;-79
2022/11/16 06:02:10;;;;;;;2.23;1.40;;;;;;;-145.69;100.00;52559.25;5116819;28;20687;-79
2022/11/16 06:04:36;;;;;;;3.00;1.27;;;;;;;-145.69;100.00;52555.28;5117140;28;20208;-79
2022/11/16 06:07:03;;;;;;;1.37;1.20;;;;;;;-145.69;100.00;52575.09;5116544;28;20658;-79
2022/11/16 06:09:29;;;;;;;1.30;1.10;;;;;;;-145.69;100.00;52575.09;5116874;28;20203;-78
2022/11/16 06:11:56;;;;;;;2.70;1.47;;;;;;;-145.69;100.00;52559.25;5116658;28;20202;-78
2022/11/16 06:14:24;;;;;;;2.77;1.40;;;;;;;-145.69;100.00;52563.22;5116002;28;20563;-78
2022/11/16 06:16:50;;;;;;;1.90;1.20;;;;;;;-145.69;100.00;52634.50;5116787;28;20204;-78
2022/11/16 06:19:17;;;;;;;3.17;1.30;;;;;;;-145.69;100.00;52602.81;5116380;28;20675;-78
2022/11/16 06:21:43;;;;;;;1.70;1.20;;;;;;;-145.69;100.00;52583.00;5115830;28;20431;-78
2022/11/16 06:24:10;;;;;;;1.00;1.00;;;;;;;-145.69;100.00;52598.84;5116491;28;20652;-79
2022/11/16 06:26:37;;;;;;;2.43;1.17;;;;;;;-145.69;100.00;52586.97;5116435;28;20225;-78
2022/11/16 06:29:03;;;;;;;2.93;1.20;;;;;;;-145.69;100.00;52579.06;5116257;28;20201;-78
2022/11/16 06:31:31;;;;;;;2.43;1.50;;;;;;;-145.69;100.00;52563.22;5116681;28;20216;-79
2022/11/16 06:33:58;;;;;;;1.37;1.13;;;;;;;-145.69;100.00;52590.94;5116420;28;20643;-78
2022/11/16 06:36:25;;;;;;;1.43;1.10;;;;;;;-145.69;100.00;52594.91;5116230;28;20221;-78
2022/11/16 06:38:51;;;;;;;1.10;0.90;;;;;;;-145.69;100.00;52579.06;5116129;28;20212;-78
2022/11/16 06:41:18;;;;;;;1.23;1.00;;;;;;;-145.69;100.00;52571.13;5115739;28;20208;-78
2022/11/16 06:43:44;;;;;;;3.87;1.30;;;;;;;-145.69;100.00;52579.06;5115883;28;20190;-78
2022/11/16 06:46:11;;;;;;;1.60;1.30;;;;;;;-145.69;100.00;52581.03;5115886;28;20320;-79
2022/11/16 06:48:39;;;;;;;2.07;1.27;;;;;;;-145.69;100.00;52616.69;5116121;28;20755;-78
2022/11/16 06:51:06;;;;;;;1.87;1.57;;;;;;;-145.69;100.00;52573.13;5116061;28;20201;-79
2022/11/16 06:53:32;;;;;;;3.40;1.40;;;;;;;-145.69;100.00;52604.81;5115550;28;20208;-79
2022/11/16 06:56:01;;;;;;;1.40;1.30;;;;;;;-145.69;100.00;52622.63;5115421;28;20204;-79
2022/11/16 06:58:29;;;;;;;2.10;1.30;;;;;;;-145.69;100.00;52577.06;5115518;28;20205;-78
2022/11/16 07:00:55;;;;;;;3.67;1.30;;;;;;;-145.69;100.00;52581.03;5115119;28;20220;-79
2022/11/16 07:03:21;;;;;;;4.63;1.00;;;;;;;-145.69;100.00;52596.88;5115052;28;20386;-79
2022/11/16 07:05:49;;;;;;;1.47;1.00;;;;;;;-145.69;100.00;52614.72;5115190;28;20243;-79
2022/11/16 07:08:16;;;;;;;3.37;1.10;;;;;;;-145.69;100.00;52585.00;5115587;28;20198;-78
2022/11/16 07:10:42;;;;;;;2.00;0.97;;;;;;;-145.69;100.00;52573.13;5115432;28;20655;-78
2022/11/16 07:13:09;;;;;;;5.03;1.00;;;;;;;-145.69;100.00;52598.84;5115774;28;20193;-79
2022/11/16 07:15:35;;;;;;;1.97;0.90;;;;;;;-145.69;100.00;52571.13;5114260;28;20547;-78
2022/11/16 07:18:06;;;;;;;4.17;1.30;;;;;;;-145.69;100.00;52581.03;5115245;28;20201;-79
2022/11/16 07:20:33;;;;;;;1.63;0.90;;;;;;;-145.69;100.00;52610.75;5114758;28;20193;-78
2022/11/16 07:23:02;;;;;;;0.93;0.80;;;;;;;-145.69;100.00;52575.09;5115212;28;20258;-79
2022/11/16 07:25:29;;;;;;;1.40;1.20;;;;;;;-145.69;100.00;52602.81;5115336;28;20553;-78
2022/11/16 07:27:57;;;;;;;3.20;1.20;;;;;;;-145.69;100.00;52557.28;5109506;28;20255;-79
2022/11/16 07:30:24;;;;;;;3.57;0.93;;;;;;;-145.69;100.00;52575.09;5094863;28;20206;-79
2022/11/16 07:32:50;;;;;;;1.73;1.20;;;;;;;-145.69;100.00;52616.69;5094320;28;20205;-78
2022/11/16 07:35:17;;;;;;;5.07;1.10;;;;;;;-145.69;100.00;52596.88;5094507;28;20199;-78
2022/11/16 07:37:43;;;;;;;4.97;1.33;;;;;;;-145.69;100.00;52606.78;5095005;28;20281;-78
2022/11/16 07:40:12;;;;;;;2.33;0.90;;;;;;;-145.69;100.00;52604.81;5094386;28;20198;-78
2022/11/16 07:42:38;;;;;;;1.40;0.80;;;;;;;-145.69;100.00;52579.06;5094408;28;20212;-78
2022/11/16 07:45:06;;;;;;;4.10;1.00;;;;;;;-145.69;100.00;52594.91;5114217;28;20189;-78
2022/11/16 07:47:35;;;;;;;4.10;1.00;;;;;;;-145.69;100.00;52583.00;5114825;28;20225;-78
2022/11/16 07:50:02;;;;;;;2.20;0.90;;;;;;;-145.69;100.00;52557.28;5114936;28;20556;-78
2022/11/16 07:52:29;;;;;;;3.33;0.90;;;;;;;-145.69;100.00;52602.81;5114267;28;20688;-78
2022/11/16 07:54:55;;;;;;;2.13;1.03;;;;;;;-145.69;100.00;52586.97;5114909;28;20201;-78
2022/11/16 07:57:23;;;;;;;1.97;0.90;;;;;;;-145.69;100.00;52596.88;5114516;28;20537;-78
2022/11/16 07:59:50;;;;;;;6.87;1.10;;;;;;;-145.69;100.00;52571.13;5114169;28;20201;-78
2022/11/16 08:02:16;;;;;;;6.33;1.20;;;;;;;-145.69;100.00;52559.25;5114568;28;20676;-78
2022/11/16 08:04:42;;;;;;;4.60;2.20;;;;;;;-145.69;100.00;52573.13;5114851;28;20249;-78
2022/11/16 08:07:10;;;;;;;2.73;1.00;;;;;;;-145.69;100.00;52555.28;5113644;28;20221;-78
2022/11/16 08:09:38;;;;;;;3.10;1.10;;;;;;;-145.69;100.00;52583.00;5114116;28;20205;-78
2022/11/16 08:12:04;;;;;;;5.80;1.00;;;;;;;-145.69;100.00;52575.09;5114655;28;20288;-78
2022/11/16 08:14:32;;;;;;;2.87;1.00;;;;;;;-145.69;100.00;52547.38;5114377;28;20193;-78
2022/11/16 08:16:59;;;;;;;2.47;0.80;;;;;;;-145.69;100.00;52557.28;5114337;28;20202;-78
2022/11/16 08:19:25;;;;;;;9.70;1.10;;;;;;;-145.69;100.00;52590.94;5114667;28;20197;-78
2022/11/16 08:21:52;;;;;;;7.87;1.10;;;;;;;-145.69;100.00;52583.00;5113804;28;20200;-78
2022/11/16 08:24:18;;;;;;;3.93;1.00;;;;;;;-145.69;100.00;52606.78;5114388;28;20197;-78
2022/11/16 08:26:45;;;;;;;4.17;1.07;;;;;;;-145.69;100.00;52579.06;5114212;28;20236;-78
2022/11/16 08:29:13;;;;;;;2.63;1.07;;;;;;;-145.69;100.00;52579.06;5114181;28;20189;-78
2022/11/16 08:31:44;;;;;;;2.47;0.97;;;;;;;-145.69;100.00;52575.09;5114130;28;20197;-77
2022/11/16 08:34:10;;;;;;;1.93;1.10;;;;;;;-145.69;100.00;52547.38;5114142;28;20284;-78
2022/11/16 08:36:37;;;;;;;2.10;0.77;;;;;;;-145.69;100.00;52569.16;5113889;28;20233;-78
2022/11/16 08:39:03;;;;;;;6.70;1.10;;;;;;;-145.69;100.00;52563.22;5113780;28;20291;-78
2022/11/16 08:41:30;;;;;;;2.83;1.10;;;;;;;-145.69;100.00;52594.91;5113785;28;20673;-78
2022/11/16 08:43:58;;;;;;;4.93;1.13;;;;;;;-145.69;100.00;52585.00;5113858;28;20656;-79
2022/11/16 08:46:24;;;;;;;4.27;1.10;;;;;;;-145.69;100.00;52533.50;5116302;28;20221;-80
2022/11/16 08:48:56;;;;;;;1.20;0.70;;;;;;;-145.69;100.00;52571.13;5115522;28;20207;-79
2022/11/16 08:51:24;;;;;;;5.63;1.07;;;;;;;-145.69;100.00;52575.09;5114956;28;20651;-81
2022/11/16 08:53:55;;;;;;;3.40;0.97;;;;;;;-145.69;100.00;52559.25;5114291;28;20675;-79
2022/11/16 08:56:22;;;;;;;6.03;1.10;;;;;;;-145.69;100.00;52563.22;5114355;28;20208;-80
2022/11/16 08:58:48;;;;;;;2.83;0.80;;;;;;;-145.69;100.00;52567.16;5113675;28;20280;-79
2022/11/16 09:01:17;;;;;;;7.53;1.23;;;;;;;-145.69;100.00;52543.41;5113577;28;20197;-78
2022/11/16 09:03:44;;;;;;;4.00;1.10;;;;;;;-145.69;100.00;52547.38;5113406;28;20201;-78
2022/11/16 09:06:12;;;;;;;8.30;1.10;;;;;;;-145.69;100.00;52515.69;5113872;28;20201;-78
2022/11/16 09:08:41;;;;;;;4.40;1.00;;;;;;;-145.69;100.00;52575.09;5113701;28;20533;-79
2022/11/16 09:11:09;;;;;;;3.80;1.20;;;;;;;-145.69;100.00;52571.13;5113164;28;20208;-79
2022/11/16 09:13:36;;;;;;;4.70;1.07;;;;;;;-145.69;100.00;52555.28;5113425;28;20202;-79
2022/11/16 09:16:03;;;;;;;7.97;1.00;;;;;;;-145.69;100.00;52527.56;5113552;28;20270;-80
2022/11/16 09:18:30;;;;;;;6.37;1.27;;;;;;;-145.69;100.00;52521.63;5113135;28;20656;-79
2022/11/16 09:20:57;;;;;;;7.27;1.50;;;;;;;-145.69;100.00;52559.25;5113124;28;20205;-79
2022/11/16 09:23:24;;;;;;;5.40;1.23;;;;;;;-145.69;100.00;52527.56;5112623;28;20201;-78
2022/11/16 09:25:51;;;;;;;3.27;0.80;;;;;;;-145.69;100.00;52531.53;5113172;28;20185;-78
2022/11/16 09:28:18;;;;;;;3.67;0.93;;;;;;;-145.69;100.00;52543.41;5113353;28;20227;-78
2022/11/16 09:30:48;;;;;;;1.90;0.80;;;;;;;-145.69;100.00;52590.94;5115557;28;20284;-80
2022/11/16 09:33:14;;;;;;;3.80;1.20;;;;;;;-145.69;100.00;52523.59;5107313;28;20197;-79
2022/11/16 09:35:41;;;;;;;4.57;0.90;;;;;;;-145.69;100.00;52535.47;5112862;28;20231;-79
2022/11/16 09:38:08;;;;;;;7.67;1.20;;;;;;;-145.69;100.00;52559.25;5113492;28;20212;-79
2022/11/16 09:40:38;;;;;;;5.60;1.10;;;;;;;-145.69;100.00;52551.31;5113411;28;20198;-78
2022/11/16 09:43:18;;;;;;;3.67;0.80;;;;;;;-145.69;100.00;52557.28;5112755;28;20197;-79
2022/11/16 09:45:52;;;;;;;3.37;0.90;;;;;;;-145.69;100.00;52525.59;5112994;28;20200;-79
2022/11/16 09:48:20;;;;;;;2.87;0.70;;;;;;;-145.69;100.00;52527.56;5112905;28;20233;-78
2022/11/16 09:50:51;;;;;;;6.13;1.07;;;;;;;-145.69;100.00;52551.31;5112776;28;20197;-79
2022/11/16 09:53:31;;;;;;;3.37;0.77;;;;;;;-145.69;100.00;52527.56;5112897;28;20197;-79
2022/11/16 09:56:04;;;;;;;4.37;0.87;;;;;;;-145.69;100.00;52559.25;5113018;28;20201;-79
2022/11/16 09:58:35;;;;;;;2.20;0.90;;;;;;;-145.69;100.00;52541.44;5114036;28;20664;-79
2022/11/16 10:01:11;;;;;;;5.73;1.07;;;;;;;-145.69;100.00;52563.22;5113420;28;20198;-81
2022/11/16 10:03:45;;;;;;;3.37;0.63;;;;;;;-145.69;100.00;52531.53;5115350;28;20556;-81
2022/11/16 10:06:20;;;;;;;2.70;0.90;;;;;;;-145.69;100.00;52537.47;5115241;28;20204;-81
2022/11/16 10:08:48;;;;;;;4.70;1.30;;;;;;;-145.69;100.00;52543.41;5096824;28;20233;-78
2022/11/16 10:11:44;;;;;;;2.43;0.83;;;;;;;-145.69;100.00;52515.69;5098095;28;20210;-80
2022/11/16 10:14:34;;;;;;;5.17;0.97;;;;;;;-145.69;100.00;52535.47;5122361;28;20247;-82
2022/11/16 10:17:06;;;;;;;4.47;1.00;;;;;;;-145.69;100.00;52503.81;5115980;28;20664;-81
2022/11/16 10:19:45;;;;;;;4.83;0.93;;;;;;;-145.69;100.00;52527.56;5115565;28;20211;-78
2022/11/16 10:22:24;;;;;;;3.93;0.97;;;;;;;-145.69;100.00;52551.31;5113544;28;20266;-80
2022/11/16 10:24:57;;;;;;;4.20;0.90;;;;;;;-145.69;100.00;52551.31;5115391;28;20201;-79
2022/11/16 10:27:57;;;;;;;6.37;0.57;;;;;;;-145.69;100.00;52499.84;5112381;28;20235;-80
2022/11/16 10:30:24;;;;;;;6.60;1.20;;;;;;;-145.69;100.00;52515.69;5115287;28;20207;-79
2022/11/16 10:32:55;;;;;;;5.40;0.93;;;;;;;-145.69;100.00;52503.81;5117349;28;20288;-80
2022/11/16 10:35:27;;;;;;;2.10;0.50;;;;;;;-145.69;100.00;52555.28;5117588;28;20241;-80
2022/11/16 10:37:57;;;;;;;8.57;2.90;;;;;;;-145.69;100.00;52489.94;5115786;28;20572;-80
2022/11/16 10:40:27;;;;;;;7.72;1.85;;;;;;;-145.69;100.00;52517.66;5117347;28;20203;-78
2022/11/16 10:43:05;;;;;;;5.60;1.98;;;;;;;-145.69;100.00;52499.84;5115836;28;20285;-79
2022/11/16 10:45:38;;;;;;;7.37;1.40;;;;;;;-145.69;97.85;52501.81;5116595;28;20228;-79
2022/11/16 10:48:14;;;;;;;6.30;1.08;;;;;;;-145.69;100.00;52533.50;5115902;28;20221;-78
2022/11/16 10:50:45;;;;;;;3.43;0.83;;;;;;;-145.69;97.40;52519.63;5115696;27;20201;-78
2022/11/16 10:53:14;;;;;;;7.13;1.70;;;;;;;-145.69;100.00;52513.69;5115747;28;20669;-78
2022/11/16 10:55:41;;;;;;;8.73;0.80;;;;;;;-145.69;100.00;52531.53;5115992;28;20253;-79
2022/11/16 10:58:09;;;;;;;5.97;1.40;;;;;;;-145.69;100.00;52535.47;5115696;27;20201;-78
2022/11/16 11:00:40;;;;;;;6.80;1.20;;;;;;;-145.69;100.00;52511.72;5115820;28;20204;-78
2022/11/16 11:03:09;;;;;;;11.60;1.10;;;;;;;-145.69;98.10;52519.63;5115334;27;20201;-78
2022/11/16 11:05:36;;;;;;;2.33;0.80;;;;;;;-145.69;100.00;52523.59;5114647;28;20185;-79
2022/11/16 11:08:07;;;;;;;6.57;1.07;;;;;;;-145.69;100.00;52505.78;5115160;28;20312;-79
2022/11/16 11:10:36;;;;;;;7.60;1.30;;;;;;;-145.69;99.89;52523.59;5115683;28;20229;-80
2022/11/16 11:13:20;;;;;;;6.30;0.80;;;;;;;-145.69;97.45;52487.97;5115041;28;20201;-79
2022/11/16 11:15:50;;;;;;;5.23;0.97;;;;;;;-145.69;96.12;52491.91;5115400;28;20208;-78
2022/11/16 11:18:24;;;;;;;8.50;1.10;;;;;;;-145.69;97.74;52458.25;5115247;28;20209;-79
2022/11/16 11:21:00;;;;;;;5.83;0.80;;;;;;;-145.69;98.10;52511.72;5115034;28;20265;-79
2022/11/16 11:23:27;;;;;;;3.33;0.90;;;;;;;-145.69;92.95;52505.78;5115406;28;20196;-79
2022/11/16 11:25:56;;;;;;;2.83;0.90;;;;;;;-145.69;94.91;52543.41;5115388;28;20209;-79
2022/11/16 11:28:31;;;;;;;2.70;0.70;;;;;;;-145.69;91.38;52472.13;5112940;28;20240;-79
2022/11/16 11:31:05;;;;;;;5.50;1.00;;;;;;;-145.69;91.52;52507.75;5095283;28;20216;-80
2022/11/16 11:33:35;;;;;;;4.13;0.80;;;;;;;-145.69;95.75;52519.63;5109056;28;20284;-79
2022/11/16 11:36:06;;;;;;;2.72;0.98;;;;;;;-145.69;93.07;52511.72;5115425;28;20627;-83
2022/11/16 11:38:34;;;;;;;4.75;1.13;;;;;;;-145.69;92.53;52515.69;5115071;28;20201;-83
2022/11/16 11:41:04;;;;;;;3.08;0.98;;;;;;;-145.69;89.03;52511.72;5113574;28;20578;-82
2022/11/16 11:43:34;;;;;;;2.78;0.70;;;;;;;-145.69;91.20;52487.97;5116924;28;20213;-83
2022/11/16 11:46:12;;;;;;;5.35;1.02;;;;;;;-145.69;94.87;52537.47;5118836;28;20197;-81
2022/11/16 11:48:46;;;;;;;5.38;0.82;;;;;;;-145.69;95.06;52478.06;5114810;28;20235;-79
2022/11/16 11:51:21;;;;;;;5.73;0.80;;;;;;;-145.69;93.16;52507.75;5114648;28;20270;-79
2022/11/16 11:53:54;;;;;;;4.43;0.90;;;;;;;-145.69;96.49;52511.72;5114747;28;20676;-79